Akiachak, Alaska
Current Conditions -  °F | °C
As of 1:56 AM on Tuesday 21 Oct 2014 (Local Time) from PFKW Reporting Station
Light Snow Light Snow  
Wind Chill: 23°   Ceiling: 1100
Heat Index: 28°   Visibility: 4mi
Dew Point: 27°   Wind: 5mph
Humidity: 96%   Direction: 10°N
Pressure: 29.22"   Gusts: NA
Location:  60.91°N, 161.44°W
Report Text: PFKW 210956Z AUTO 01004KT 4SM -SN BR FEW005 BKN011 OVC025 M02/M03 A2922 RMK AO2 SLP895 P0000 T10221028 FZRANO
Loading
Personal Weather Stations






























Interactive Weather Map
Tropical Storm Tracking
New forecast layout! Learn more

10-Day Weather Forecast

Advertisements
Track Severe Weather on mobile